createdAt,value
2023-01-11T00:01:11.940Z,8.87
2023-01-11T00:03:39.843Z,8.84
2023-01-11T00:06:10.035Z,9.02
2023-01-11T00:08:38.050Z,8.86
2023-01-11T00:11:15.808Z,8.70
2023-01-11T00:13:45.506Z,8.69
2023-01-11T00:16:14.196Z,8.80
2023-01-11T00:18:42.216Z,8.72
2023-01-11T00:21:10.620Z,8.65
2023-01-11T00:23:38.903Z,8.67
2023-01-11T00:26:10.462Z,8.86
2023-01-11T00:28:38.432Z,8.90
2023-01-11T00:31:06.834Z,9.01
2023-01-11T00:33:35.173Z,8.86
2023-01-11T00:36:04.729Z,8.79
2023-01-11T00:38:44.438Z,8.95
2023-01-11T00:41:34.886Z,8.85
2023-01-11T00:44:24.144Z,8.79
2023-01-11T00:47:11.184Z,8.66
2023-01-11T00:49:39.179Z,8.63
2023-01-11T00:52:09.989Z,8.72
2023-01-11T00:54:42.480Z,8.42
2023-01-11T00:57:10.747Z,8.59
2023-01-11T00:59:41.707Z,8.69
2023-01-11T01:02:11.415Z,8.62
2023-01-11T01:04:40.414Z,8.52
2023-01-11T01:07:09.559Z,8.47
2023-01-11T01:09:38.109Z,8.42
2023-01-11T01:12:09.348Z,8.28
2023-01-11T01:14:37.522Z,8.35
2023-01-11T01:17:09.071Z,8.54
2023-01-11T01:19:39.044Z,8.67
2023-01-11T01:22:07.509Z,8.32
2023-01-11T01:24:35.620Z,8.22
2023-01-11T01:27:03.886Z,8.13
2023-01-11T01:29:31.835Z,8.61
2023-01-11T01:32:01.474Z,8.13
2023-01-11T01:34:29.196Z,8.06
2023-01-11T01:36:57.467Z,7.76
2023-01-11T01:39:25.167Z,7.36
2023-01-11T01:41:53.247Z,7.76
2023-01-11T01:44:58.627Z,7.76
2023-01-11T01:47:38.761Z,7.38
2023-01-11T01:50:18.129Z,7.55
2023-01-11T01:52:50.975Z,7.29
2023-01-11T01:55:28.695Z,7.66
2023-01-11T01:57:59.459Z,7.67
2023-01-11T02:00:27.297Z,7.41
2023-01-11T02:02:58.738Z,7.40
2023-01-11T02:05:28.298Z,7.49
2023-01-11T02:07:59.869Z,7.33
2023-01-11T02:10:28.976Z,7.33
2023-01-11T02:12:57.008Z,7.52
2023-01-11T02:15:24.985Z,7.42
2023-01-11T02:17:54.171Z,7.44
2023-01-11T02:20:55.855Z,7.80
2023-01-11T02:24:03.267Z,7.66
2023-01-11T02:26:30.897Z,7.62
2023-01-11T02:29:25.929Z,7.67
2023-01-11T02:32:14.305Z,7.74
2023-01-11T02:34:50.695Z,7.68
2023-01-11T02:37:27.160Z,7.67
2023-01-11T02:40:25.704Z,7.79
2023-01-11T02:43:21.448Z,7.66
2023-01-11T02:46:14.265Z,7.75
2023-01-11T02:49:08.857Z,7.75
2023-01-11T02:52:01.416Z,7.72
2023-01-11T02:54:31.927Z,7.66
2023-01-11T02:57:02.176Z,7.66
2023-01-11T02:59:33.176Z,7.84
2023-01-11T03:02:01.480Z,7.70
2023-01-11T03:04:37.196Z,7.76
2023-01-11T03:07:13.941Z,7.79
2023-01-11T03:09:53.659Z,7.84
2023-01-11T03:12:42.977Z,7.71
2023-01-11T03:15:28.521Z,7.70
2023-01-11T03:17:59.795Z,7.82
2023-01-11T03:20:35.649Z,7.80
2023-01-11T03:23:12.487Z,7.83
2023-01-11T03:25:58.848Z,7.85
2023-01-11T03:29:06.518Z,7.71
2023-01-11T03:31:39.201Z,7.52
2023-01-11T03:34:14.175Z,7.54
2023-01-11T03:37:04.745Z,7.47
2023-01-11T03:40:00.696Z,7.49
2023-01-11T03:42:30.847Z,7.45
2023-01-11T03:45:02.860Z,7.42
2023-01-11T03:47:33.345Z,7.26
2023-01-11T03:50:07.427Z,7.41
2023-01-11T03:52:39.039Z,7.48
2023-01-11T03:55:10.502Z,7.36
2023-01-11T03:57:47.957Z,7.52
2023-01-11T04:00:16.632Z,7.29
2023-01-11T04:02:44.315Z,7.39
2023-01-11T04:05:13.598Z,7.34
2023-01-11T04:07:41.671Z,7.20
2023-01-11T04:10:10.411Z,7.11
2023-01-11T04:12:38.101Z,6.96
2023-01-11T04:15:06.640Z,7.03
2023-01-11T04:17:34.246Z,6.93
2023-01-11T04:20:02.194Z,6.99
2023-01-11T04:22:30.132Z,7.12
2023-01-11T04:24:58.136Z,7.05
2023-01-11T04:27:26.063Z,6.96
2023-01-11T04:29:54.162Z,7.13
2023-01-11T04:32:21.942Z,7.38
2023-01-11T04:34:51.041Z,7.11
2023-01-11T04:37:18.686Z,7.02
2023-01-11T04:39:46.657Z,7.02
2023-01-11T04:42:20.714Z,6.93
2023-01-11T04:44:50.455Z,6.99
2023-01-11T04:47:20.808Z,7.04
2023-01-11T04:49:49.117Z,7.11
2023-01-11T04:52:18.829Z,7.07
2023-01-11T04:54:49.013Z,6.94
2023-01-11T04:57:17.675Z,7.20
2023-01-11T04:59:47.000Z,7.01
2023-01-11T05:02:15.888Z,7.12
2023-01-11T05:04:44.495Z,7.24
2023-01-11T05:07:12.398Z,7.37
2023-01-11T05:09:41.025Z,7.62
2023-01-11T05:12:08.777Z,7.34
2023-01-11T05:14:36.772Z,7.23
2023-01-11T05:17:04.588Z,7.05
2023-01-11T05:19:32.652Z,6.99
2023-01-11T05:22:00.462Z,7.03
2023-01-11T05:24:28.611Z,6.99
2023-01-11T05:26:56.389Z,7.24
2023-01-11T05:29:24.593Z,7.21
2023-01-11T05:31:52.472Z,7.21
2023-01-11T05:34:20.733Z,7.21
2023-01-11T05:36:48.584Z,7.24
2023-01-11T05:39:16.650Z,7.48
2023-01-11T05:41:44.366Z,7.52
2023-01-11T05:44:32.333Z,7.62
2023-01-11T05:47:00.214Z,7.31
2023-01-11T05:49:28.555Z,7.23
2023-01-11T05:51:56.578Z,6.79
2023-01-11T05:54:24.672Z,6.63
2023-01-11T05:56:52.436Z,6.58
2023-01-11T05:59:20.677Z,6.79
2023-01-11T06:01:48.804Z,6.82
2023-01-11T06:04:16.948Z,6.80
2023-01-11T06:06:44.747Z,6.87
2023-01-11T06:09:12.835Z,6.95
2023-01-11T06:11:40.647Z,6.98
2023-01-11T06:14:08.672Z,7.11
2023-01-11T06:16:36.730Z,7.02
2023-01-11T06:19:04.837Z,7.02
2023-01-11T06:21:32.562Z,7.17
2023-01-11T06:24:00.597Z,7.22
2023-01-11T06:26:28.319Z,7.23
2023-01-11T06:28:56.402Z,7.12
2023-01-11T06:31:24.099Z,7.07
2023-01-11T06:33:52.215Z,7.29
2023-01-11T06:36:20.112Z,7.03
2023-01-11T06:38:48.214Z,7.01
2023-01-11T06:41:16.125Z,6.91
2023-01-11T06:43:44.270Z,7.05
2023-01-11T06:46:13.851Z,7.23
2023-01-11T06:48:42.635Z,7.15
2023-01-11T06:51:12.242Z,7.08
2023-01-11T06:53:44.625Z,7.31
2023-01-11T06:56:19.339Z,7.31
2023-01-11T06:58:48.206Z,7.56
2023-01-11T07:01:18.359Z,7.45
2023-01-11T07:03:46.692Z,7.27
2023-01-11T07:06:14.547Z,7.55
2023-01-11T07:08:44.012Z,7.67
2023-01-11T07:11:11.932Z,7.59
2023-01-11T07:13:40.017Z,7.70
2023-01-11T07:16:08.524Z,7.74
2023-01-11T07:18:37.942Z,7.80
2023-01-11T07:21:05.949Z,7.76
2023-01-11T07:23:35.045Z,7.56
2023-01-11T07:26:02.873Z,7.70
2023-01-11T07:28:31.026Z,7.71
2023-01-11T07:30:59.959Z,8.00
2023-01-11T07:33:28.742Z,7.90
2023-01-11T07:35:58.276Z,7.89
2023-01-11T07:38:29.480Z,8.21
2023-01-11T07:40:57.281Z,8.13
2023-01-11T07:43:25.552Z,8.29
2023-01-11T07:45:53.681Z,8.26
2023-01-11T07:48:26.942Z,8.28
2023-01-11T07:50:55.991Z,8.77
2023-01-11T07:53:26.638Z,8.94
2023-01-11T07:55:57.443Z,9.65
2023-01-11T07:58:26.228Z,9.81
2023-01-11T08:00:54.221Z,10.08
2023-01-11T08:03:23.639Z,10.01
2023-01-11T08:05:52.871Z,10.59
2023-01-11T08:08:21.724Z,10.97
2023-01-11T08:11:12.727Z,10.83
2023-01-11T08:13:59.621Z,10.57
2023-01-11T08:16:27.641Z,10.16
2023-01-11T08:18:55.863Z,10.17
2023-01-11T08:21:23.660Z,10.40
2023-01-11T08:23:57.425Z,10.34
2023-01-11T08:26:26.503Z,10.23
2023-01-11T08:28:56.258Z,10.20
2023-01-11T08:31:24.867Z,10.21
2023-01-11T08:33:53.195Z,10.53
2023-01-11T08:36:21.455Z,10.54
2023-01-11T08:38:49.774Z,10.85
2023-01-11T08:41:17.488Z,10.93
2023-01-11T08:43:45.618Z,11.01
2023-01-11T08:46:13.296Z,11.47
2023-01-11T08:48:41.394Z,11.60
2023-01-11T08:51:10.486Z,11.75
2023-01-11T08:53:38.612Z,11.53
2023-01-11T08:56:06.894Z,11.65
2023-01-11T08:58:36.175Z,11.80
2023-01-11T09:01:08.421Z,11.83
2023-01-11T09:03:36.493Z,11.53
2023-01-11T09:06:04.245Z,11.98
2023-01-11T09:08:32.218Z,12.17
2023-01-11T09:11:00.248Z,12.34
2023-01-11T09:13:28.284Z,12.67
2023-01-11T09:15:59.281Z,12.48
2023-01-11T09:18:27.420Z,12.78
2023-01-11T09:20:55.491Z,12.94
2023-01-11T09:23:23.696Z,12.60
2023-01-11T09:25:51.565Z,12.71
2023-01-11T09:28:19.671Z,12.59
2023-01-11T09:30:47.332Z,12.65
2023-01-11T09:33:15.565Z,13.00
2023-01-11T09:35:47.018Z,13.28
2023-01-11T09:38:15.247Z,13.07
2023-01-11T09:41:00.100Z,12.55
2023-01-11T09:43:31.192Z,12.62
2023-01-11T09:46:08.697Z,13.27
2023-01-11T09:48:55.193Z,12.59
2023-01-11T09:51:29.576Z,12.99
2023-01-11T09:53:59.949Z,13.16
2023-01-11T09:56:46.702Z,13.19
2023-01-11T09:59:30.045Z,13.39
2023-01-11T10:02:12.098Z,13.15
2023-01-11T10:04:59.601Z,13.96
2023-01-11T10:18:29.668Z,13.65
2023-01-11T10:18:30.327Z,13.92
2023-01-11T10:20:35.832Z,14.58
2023-01-11T10:23:11.779Z,15.05
2023-01-11T10:25:51.858Z,15.01
2023-01-11T10:28:43.351Z,15.31
2023-01-11T10:31:35.043Z,14.39
2023-01-11T10:34:30.898Z,14.76
2023-01-11T10:37:23.004Z,15.65
2023-01-11T10:40:28.006Z,15.96
2023-01-11T10:43:13.077Z,15.73
2023-01-11T10:45:52.610Z,15.79
2023-01-11T10:48:28.465Z,15.00
2023-01-11T10:51:32.466Z,15.00
2023-01-11T10:54:14.605Z,13.97
2023-01-11T10:57:11.725Z,14.24
2023-01-11T10:59:52.636Z,14.56
2023-01-11T11:02:33.971Z,14.96
2023-01-11T11:05:16.744Z,14.79
2023-01-11T11:08:00.831Z,15.18
2023-01-11T11:10:45.456Z,14.11
2023-01-11T11:13:29.617Z,14.96
2023-01-11T11:16:00.205Z,15.11
2023-01-11T11:18:29.745Z,15.44
2023-01-11T11:21:04.277Z,15.40
2023-01-11T11:23:33.375Z,15.17
2023-01-11T11:26:04.473Z,15.71
2023-01-11T11:28:33.510Z,15.25
2023-01-11T11:31:07.757Z,15.94
2023-01-11T11:33:40.122Z,16.28
2023-01-11T11:36:13.237Z,16.89
2023-01-11T11:39:12.090Z,16.75
2023-01-11T11:41:56.575Z,16.36
2023-01-11T11:44:28.806Z,16.27
2023-01-11T11:47:14.264Z,14.97
2023-01-11T11:49:43.121Z,15.45
2023-01-11T11:52:17.828Z,15.26
2023-01-11T11:54:56.896Z,15.05
2023-01-11T11:57:31.274Z,16.06
2023-01-11T12:00:09.287Z,15.42
2023-01-11T12:02:45.659Z,15.47
2023-01-11T12:05:13.970Z,15.19
2023-01-11T12:07:55.243Z,16.08
2023-01-11T12:10:26.772Z,15.61
2023-01-11T12:13:02.742Z,14.88
2023-01-11T12:15:33.621Z,15.12
2023-01-11T12:18:28.245Z,14.79
2023-01-11T12:20:57.466Z,15.38
2023-01-11T12:23:26.764Z,15.14
2023-01-11T12:26:19.413Z,15.35
2023-01-11T12:29:09.914Z,15.57
2023-01-11T12:31:56.975Z,15.22
2023-01-11T12:34:24.734Z,15.46
2023-01-11T12:37:05.615Z,15.19
2023-01-11T12:39:56.726Z,15.50
2023-01-11T12:42:42.914Z,15.67
2023-01-11T12:45:11.216Z,16.68
2023-01-11T12:47:55.341Z,15.91
2023-01-11T12:51:02.233Z,15.32
2023-01-11T12:53:48.566Z,15.38
2023-01-11T12:56:27.895Z,15.49
2023-01-11T12:59:23.563Z,14.95
2023-01-11T13:01:54.067Z,15.79
2023-01-11T13:04:45.144Z,15.80
2023-01-11T13:07:12.918Z,15.08
2023-01-11T13:09:53.845Z,15.38
2023-01-11T13:12:24.678Z,15.11
2023-01-11T13:15:17.683Z,15.41
2023-01-11T13:17:59.283Z,14.84
2023-01-11T13:21:02.229Z,14.75
2023-01-11T13:23:39.452Z,14.98
2023-01-11T13:26:18.783Z,15.38
2023-01-11T13:28:53.123Z,15.38
2023-01-11T13:31:22.274Z,15.17
2023-01-11T13:33:57.992Z,15.11
2023-01-11T13:36:33.782Z,15.32
2023-01-11T13:39:30.450Z,14.83
2023-01-11T13:42:05.271Z,14.36
2023-01-11T13:44:42.793Z,14.63
2023-01-11T13:47:18.082Z,14.46
2023-01-11T13:50:01.381Z,14.61
2023-01-11T13:53:01.946Z,15.03
2023-01-11T13:55:40.074Z,14.09
2023-01-11T13:58:19.518Z,14.31
2023-01-11T14:01:08.518Z,14.35
2023-01-11T14:04:12.813Z,14.10
2023-01-11T14:06:59.226Z,13.96
2023-01-11T14:09:59.414Z,14.25
2023-01-11T14:12:45.693Z,13.88
2023-01-11T14:15:19.751Z,13.80
2023-01-11T14:17:50.234Z,13.70
2023-01-11T14:20:35.904Z,13.03
2023-01-11T14:23:17.188Z,12.98
2023-01-11T14:26:10.282Z,12.99
2023-01-11T14:28:44.587Z,13.06
2023-01-11T14:31:16.027Z,12.70
2023-01-11T14:34:21.702Z,12.99
2023-01-11T14:37:16.609Z,12.79
2023-01-11T14:40:10.196Z,13.10
2023-01-11T14:43:03.207Z,13.17
2023-01-11T14:45:45.273Z,13.33
2023-01-11T14:48:52.819Z,13.23
2023-01-11T14:51:51.649Z,13.39
2023-01-11T14:54:36.532Z,13.29
2023-01-11T14:57:04.415Z,12.85
2023-01-11T14:59:38.762Z,12.47
2023-01-11T15:02:11.122Z,13.11
2023-01-11T15:04:52.187Z,12.73
2023-01-11T15:07:33.658Z,13.06
2023-01-11T15:10:25.125Z,12.74
2023-01-11T15:12:57.141Z,12.81
2023-01-11T15:15:47.920Z,12.95
2023-01-11T15:18:19.191Z,12.67
2023-01-11T15:21:22.693Z,12.70
2023-01-11T15:23:59.777Z,12.76
2023-01-11T15:26:29.261Z,12.24
2023-01-11T15:29:05.398Z,12.48
2023-01-11T15:31:34.525Z,12.55
2023-01-11T15:34:04.188Z,12.58
2023-01-11T15:36:52.526Z,12.60
2023-01-11T15:39:47.941Z,12.73
2023-01-11T15:42:17.318Z,12.67
2023-01-11T15:45:26.609Z,12.25
2023-01-11T15:48:09.881Z,12.44
2023-01-11T15:51:03.365Z,12.34
2023-01-11T15:53:49.684Z,12.22
2023-01-11T15:57:10.903Z,12.14
2023-01-11T15:59:54.343Z,12.06
2023-01-11T16:02:37.381Z,11.93
2023-01-11T16:05:35.372Z,11.86
2023-01-11T16:08:22.353Z,11.84
2023-01-11T16:10:59.042Z,11.65
2023-01-11T16:13:29.575Z,11.72
2023-01-11T16:16:29.369Z,11.64
2023-01-11T16:19:03.848Z,11.61
2023-01-11T16:21:36.627Z,11.53
2023-01-11T16:24:09.917Z,11.37
2023-01-11T16:26:41.851Z,11.47
2023-01-11T16:29:23.249Z,11.31
2023-01-11T16:31:52.626Z,11.25
2023-01-11T16:34:20.487Z,11.25
2023-01-11T16:36:49.430Z,11.30
2023-01-11T16:39:27.714Z,11.29
2023-01-11T16:42:14.698Z,11.08
2023-01-11T16:45:09.091Z,10.94
2023-01-11T16:47:38.355Z,10.90
2023-01-11T16:50:21.136Z,10.97
2023-01-11T16:52:49.136Z,11.00
2023-01-11T16:55:33.023Z,10.91
2023-01-11T16:58:07.881Z,11.10
2023-01-11T17:00:38.541Z,10.79
2023-01-11T17:03:19.348Z,10.76
2023-01-11T17:06:08.067Z,10.88
2023-01-11T17:08:39.442Z,10.90
2023-01-11T17:11:41.983Z,10.74
2023-01-11T17:14:35.107Z,10.68
2023-01-11T17:17:09.463Z,10.55
2023-01-11T17:19:44.520Z,10.56
2023-01-11T17:22:32.335Z,10.61
2023-01-11T17:25:16.282Z,10.66
2023-01-11T17:27:55.034Z,10.65
2023-01-11T17:30:25.755Z,10.73
2023-01-11T17:32:56.187Z,10.74
2023-01-11T17:35:27.421Z,10.71
2023-01-11T17:38:02.327Z,10.65
2023-01-11T17:40:50.225Z,10.81
2023-01-11T17:43:43.138Z,10.83
2023-01-11T17:46:20.663Z,10.76
2023-01-11T17:48:54.254Z,10.75
2023-01-11T17:51:28.169Z,10.66
2023-01-11T17:53:55.967Z,10.58
2023-01-11T17:56:32.991Z,10.63
2023-01-11T17:59:21.995Z,10.53
2023-01-11T18:01:57.907Z,10.56
2023-01-11T18:04:27.513Z,10.50
2023-01-11T18:07:18.014Z,10.50
2023-01-11T18:09:49.328Z,10.62
2023-01-11T18:12:26.665Z,10.59
2023-01-11T18:14:56.961Z,10.62
2023-01-11T18:17:32.189Z,10.58
2023-01-11T18:20:00.745Z,10.70
2023-01-11T18:22:40.944Z,10.46
2023-01-11T18:25:29.436Z,10.71
2023-01-11T18:28:17.801Z,10.57
2023-01-11T18:30:52.652Z,10.72
2023-01-11T18:33:23.585Z,10.59
2023-01-11T18:35:54.093Z,10.79
2023-01-11T18:38:34.498Z,10.78
2023-01-11T18:41:28.005Z,10.68
2023-01-11T18:43:56.377Z,10.72
2023-01-11T18:46:24.272Z,10.45
2023-01-11T18:48:52.735Z,10.48
2023-01-11T18:51:39.646Z,10.37
2023-01-11T18:54:15.348Z,10.49
2023-01-11T18:56:43.296Z,10.64
2023-01-11T18:59:11.467Z,10.38
2023-01-11T19:01:54.352Z,10.34
2023-01-11T19:04:26.907Z,10.57
2023-01-11T19:06:54.896Z,10.55
2023-01-11T19:09:22.952Z,10.30
2023-01-11T19:11:50.767Z,10.26
2023-01-11T19:14:18.986Z,10.13
2023-01-11T19:16:46.696Z,10.26
2023-01-11T19:19:14.946Z,10.10
2023-01-11T19:21:42.796Z,10.22
2023-01-11T19:24:11.071Z,10.20
2023-01-11T19:26:38.921Z,10.11
2023-01-11T19:29:08.977Z,10.23
2023-01-11T19:31:36.804Z,10.28
2023-01-11T19:34:04.983Z,10.35
2023-01-11T19:36:32.851Z,10.50
2023-01-11T19:39:02.067Z,10.22
2023-01-11T19:41:50.016Z,10.35
2023-01-11T19:44:18.178Z,10.20
2023-01-11T19:46:47.008Z,10.12
2023-01-11T19:49:16.902Z,10.32
2023-01-11T19:51:45.984Z,10.08
2023-01-11T19:54:16.611Z,10.05
2023-01-11T19:56:45.076Z,10.00
2023-01-11T19:59:13.303Z,10.01
2023-01-11T20:01:41.639Z,9.98
2023-01-11T20:04:10.992Z,10.11
2023-01-11T20:06:41.461Z,9.99
2023-01-11T20:09:11.182Z,9.97
2023-01-11T20:11:38.982Z,9.96
2023-01-11T20:14:07.138Z,10.03
2023-01-11T20:16:34.921Z,10.19
2023-01-11T20:19:04.227Z,10.12
2023-01-11T20:21:35.533Z,10.13
2023-01-11T20:24:04.056Z,10.14
2023-01-11T20:26:34.081Z,9.95
2023-01-11T20:29:02.358Z,10.04
2023-01-11T20:31:32.491Z,10.15
2023-01-11T20:34:04.418Z,10.18
2023-01-11T20:36:32.191Z,10.09
2023-01-11T20:39:00.363Z,10.03
2023-01-11T20:41:46.835Z,9.98
2023-01-11T20:44:20.492Z,10.03
2023-01-11T20:46:48.574Z,10.10
2023-01-11T20:49:18.291Z,10.10
2023-01-11T20:51:46.877Z,10.22
2023-01-11T20:54:15.043Z,10.25
2023-01-11T20:56:46.413Z,10.08
2023-01-11T20:59:17.620Z,10.09
2023-01-11T21:01:46.582Z,10.15
2023-01-11T21:04:17.191Z,10.05
2023-01-11T21:06:48.494Z,10.00
2023-01-11T21:09:18.284Z,9.99
2023-01-11T21:11:53.243Z,10.04
2023-01-11T21:14:22.103Z,9.99
2023-01-11T21:16:49.996Z,9.91
2023-01-11T21:19:18.045Z,9.93
2023-01-11T21:21:46.136Z,9.83
2023-01-11T21:24:16.004Z,9.92
2023-01-11T21:26:45.910Z,9.94
2023-01-11T21:29:14.435Z,9.97
2023-01-11T21:31:42.804Z,10.12
2023-01-11T21:34:13.388Z,10.08
2023-01-11T21:36:41.609Z,10.11
2023-01-11T21:39:14.191Z,10.17
2023-01-11T21:41:55.332Z,10.12
2023-01-11T21:44:29.259Z,10.16
2023-01-11T21:46:57.423Z,10.17
2023-01-11T21:49:25.529Z,10.37
2023-01-11T21:51:53.310Z,10.33
2023-01-11T21:54:21.550Z,10.30
2023-01-11T21:56:50.579Z,10.41
2023-01-11T21:59:20.630Z,10.21
2023-01-11T22:01:49.447Z,10.36
2023-01-11T22:04:20.559Z,10.35
2023-01-11T22:06:55.677Z,10.32
2023-01-11T22:09:27.566Z,10.29
2023-01-11T22:11:55.712Z,10.17
2023-01-11T22:14:23.962Z,10.21
2023-01-11T22:16:53.056Z,10.35
2023-01-11T22:19:21.121Z,10.15
2023-01-11T22:21:49.106Z,10.18
2023-01-11T22:24:18.355Z,10.25
2023-01-11T22:26:46.214Z,10.25
2023-01-11T22:29:17.504Z,10.29
2023-01-11T22:31:55.803Z,10.34
2023-01-11T22:34:24.056Z,10.52
2023-01-11T22:36:51.816Z,10.48
2023-01-11T22:39:21.185Z,10.37
2023-01-11T22:41:49.095Z,10.51
2023-01-11T22:44:18.093Z,10.30
2023-01-11T22:46:46.013Z,10.31
2023-01-11T22:49:14.952Z,10.09
2023-01-11T22:51:43.845Z,10.03
2023-01-11T22:54:13.539Z,10.26
2023-01-11T22:56:41.630Z,10.46
2023-01-11T22:59:10.532Z,10.58
2023-01-11T23:01:40.486Z,10.47
2023-01-11T23:04:12.211Z,10.01
2023-01-11T23:06:41.977Z,10.04
2023-01-11T23:09:16.338Z,10.14
2023-01-11T23:12:04.160Z,10.03
2023-01-11T23:14:33.393Z,10.17
2023-01-11T23:17:10.867Z,10.07
2023-01-11T23:19:41.334Z,10.22
2023-01-11T23:22:09.801Z,10.25
2023-01-11T23:24:38.325Z,10.24
2023-01-11T23:27:06.290Z,10.29
2023-01-11T23:29:35.701Z,10.34
2023-01-11T23:32:03.570Z,10.23
2023-01-11T23:34:31.776Z,10.29
2023-01-11T23:36:59.718Z,10.22
2023-01-11T23:39:27.705Z,9.93
2023-01-11T23:42:14.271Z,10.00
2023-01-11T23:44:42.399Z,10.00
2023-01-11T23:47:21.430Z,10.18
2023-01-11T23:49:55.182Z,10.20
2023-01-11T23:52:26.018Z,10.17
2023-01-11T23:54:54.637Z,10.23
2023-01-11T23:57:24.829Z,10.13
2023-01-11T23:59:53.172Z,10.06
